sensor_id;sensor_type;location;lat;lon;timestamp;pressure;altitude;pressure_sealevel;temperature;humidity
20256;BME280;10286;59.364;18.016;2023-11-19T00:00:29;101500.13;;;-2.91;100.00
20256;BME280;10286;59.364;18.016;2023-11-19T00:02:57;101512.97;;;-2.87;100.00
20256;BME280;10286;59.364;18.016;2023-11-19T00:05:24;101502.66;;;-2.90;100.00
20256;BME280;10286;59.364;18.016;2023-11-19T00:07:55;101475.44;;;-3.06;100.00
20256;BME280;10286;59.364;18.016;2023-11-19T00:10:24;101471.03;;;-3.02;100.00
20256;BME280;10286;59.364;18.016;2023-11-19T00:12:54;101473.53;;;-2.96;100.00
20256;BME280;10286;59.364;18.016;2023-11-19T00:15:23;101492.94;;;-2.74;100.00
20256;BME280;10286;59.364;18.016;2023-11-19T00:17:51;101494.81;;;-2.84;100.00
20256;BME280;10286;59.364;18.016;2023-11-19T00:20:26;101478.59;;;-2.92;100.00
20256;BME280;10286;59.364;18.016;2023-11-19T00:22:54;101458.13;;;-3.01;100.00
20256;BME280;10286;59.364;18.016;2023-11-19T00:25:21;101476.81;;;-2.87;100.00
20256;BME280;10286;59.364;18.016;2023-11-19T00:27:49;101480.03;;;-2.76;100.00
20256;BME280;10286;59.364;18.016;2023-11-19T00:30:22;101474.06;;;-2.79;100.00
20256;BME280;10286;59.364;18.016;2023-11-19T00:32:49;101445.13;;;-2.96;100.00
20256;BME280;10286;59.364;18.016;2023-11-19T00:35:20;101430.88;;;-3.17;100.00
20256;BME280;10286;59.364;18.016;2023-11-19T00:37:48;101453.16;;;-3.11;100.00
20256;BME280;10286;59.364;18.016;2023-11-19T00:40:16;101465.22;;;-3.13;100.00
20256;BME280;10286;59.364;18.016;2023-11-19T00:42:44;101453.22;;;-3.16;100.00
20256;BME280;10286;59.364;18.016;2023-11-19T00:45:11;101450.69;;;-3.19;100.00
20256;BME280;10286;59.364;18.016;2023-11-19T00:47:43;101456.50;;;-3.06;100.00
20256;BME280;10286;59.364;18.016;2023-11-19T00:50:16;101460.84;;;-3.10;100.00
20256;BME280;10286;59.364;18.016;2023-11-19T00:52:46;101449.56;;;-3.03;100.00
20256;BME280;10286;59.364;18.016;2023-11-19T00:55:15;101453.06;;;-3.07;100.00
20256;BME280;10286;59.364;18.016;2023-11-19T00:57:43;101441.69;;;-2.98;100.00
20256;BME280;10286;59.364;18.016;2023-11-19T01:00:22;101435.19;;;-3.17;100.00
20256;BME280;10286;59.364;18.016;2023-11-19T01:02:55;101431.81;;;-3.22;100.00
20256;BME280;10286;59.364;18.016;2023-11-19T01:05:23;101435.38;;;-3.29;100.00
20256;BME280;10286;59.364;18.016;2023-11-19T01:07:51;101442.13;;;-3.19;100.00
20256;BME280;10286;59.364;18.016;2023-11-19T01:10:21;101446.53;;;-3.26;100.00
20256;BME280;10286;59.364;18.016;2023-11-19T01:12:48;101441.38;;;-3.26;100.00
20256;BME280;10286;59.364;18.016;2023-11-19T01:15:15;101430.03;;;-3.17;100.00
20256;BME280;10286;59.364;18.016;2023-11-19T01:17:45;101409.47;;;-3.23;100.00
20256;BME280;10286;59.364;18.016;2023-11-19T01:20:14;101430.59;;;-3.02;100.00
20256;BME280;10286;59.364;18.016;2023-11-19T01:22:41;101438.53;;;-3.12;100.00
20256;BME280;10286;59.364;18.016;2023-11-19T01:25:10;101424.19;;;-3.28;100.00
20256;BME280;10286;59.364;18.016;2023-11-19T01:27:37;101433.63;;;-3.27;100.00
20256;BME280;10286;59.364;18.016;2023-11-19T01:30:06;101401.09;;;-3.36;100.00
20256;BME280;10286;59.364;18.016;2023-11-19T01:32:40;101429.09;;;-3.15;100.00
20256;BME280;10286;59.364;18.016;2023-11-19T01:35:09;101387.72;;;-3.58;100.00
20256;BME280;10286;59.364;18.016;2023-11-19T01:37:37;101431.34;;;-3.45;100.00
20256;BME280;10286;59.364;18.016;2023-11-19T01:40:05;101403.03;;;-3.48;100.00
20256;BME280;10286;59.364;18.016;2023-11-19T01:42:36;101426.72;;;-3.25;100.00
20256;BME280;10286;59.364;18.016;2023-11-19T01:45:05;101419.97;;;-3.32;100.00
20256;BME280;10286;59.364;18.016;2023-11-19T01:47:38;101418.16;;;-3.27;100.00
20256;BME280;10286;59.364;18.016;2023-11-19T01:50:06;101401.91;;;-3.34;100.00
20256;BME280;10286;59.364;18.016;2023-11-19T01:52:37;101402.66;;;-3.26;100.00
20256;BME280;10286;59.364;18.016;2023-11-19T01:55:07;101412.00;;;-3.20;100.00
20256;BME280;10286;59.364;18.016;2023-11-19T01:57:36;101398.69;;;-3.44;100.00
20256;BME280;10286;59.364;18.016;2023-11-19T02:00:09;101369.41;;;-3.43;100.00
20256;BME280;10286;59.364;18.016;2023-11-19T02:02:42;101359.25;;;-3.52;100.00
20256;BME280;10286;59.364;18.016;2023-11-19T02:05:13;101337.03;;;-3.59;100.00
20256;BME280;10286;59.364;18.016;2023-11-19T02:07:42;101391.00;;;-3.47;100.00
20256;BME280;10286;59.364;18.016;2023-11-19T02:10:11;101381.81;;;-3.65;100.00
20256;BME280;10286;59.364;18.016;2023-11-19T02:12:40;101341.84;;;-3.88;100.00
20256;BME280;10286;59.364;18.016;2023-11-19T02:15:11;101379.41;;;-3.75;100.00
20256;BME280;10286;59.364;18.016;2023-11-19T02:17:39;101378.63;;;-3.79;100.00
20256;BME280;10286;59.364;18.016;2023-11-19T02:20:07;101341.28;;;-4.08;100.00
20256;BME280;10286;59.364;18.016;2023-11-19T02:22:38;101377.06;;;-3.87;100.00
20256;BME280;10286;59.364;18.016;2023-11-19T02:25:10;101371.03;;;-3.88;100.00
20256;BME280;10286;59.364;18.016;2023-11-19T02:27:51;101366.31;;;-3.63;100.00
20256;BME280;10286;59.364;18.016;2023-11-19T02:30:23;101376.66;;;-3.63;100.00
20256;BME280;10286;59.364;18.016;2023-11-19T02:32:52;101357.72;;;-3.64;100.00
20256;BME280;10286;59.364;18.016;2023-11-19T02:35:19;101370.53;;;-3.58;100.00
20256;BME280;10286;59.364;18.016;2023-11-19T02:37:48;101368.16;;;-3.68;100.00
20256;BME280;10286;59.364;18.016;2023-11-19T02:40:16;101360.28;;;-3.61;100.00
20256;BME280;10286;59.364;18.016;2023-11-19T02:42:43;101350.84;;;-3.63;100.00
20256;BME280;10286;59.364;18.016;2023-11-19T02:45:14;101347.44;;;-3.65;100.00
20256;BME280;10286;59.364;18.016;2023-11-19T02:47:43;101344.00;;;-3.64;100.00
20256;BME280;10286;59.364;18.016;2023-11-19T02:50:11;101348.84;;;-3.46;100.00
20256;BME280;10286;59.364;18.016;2023-11-19T02:52:40;101340.31;;;-3.51;100.00
20256;BME280;10286;59.364;18.016;2023-11-19T02:55:09;101337.69;;;-3.48;100.00
20256;BME280;10286;59.364;18.016;2023-11-19T02:57:38;101331.91;;;-3.62;100.00
20256;BME280;10286;59.364;18.016;2023-11-19T03:00:06;101322.16;;;-3.45;100.00
20256;BME280;10286;59.364;18.016;2023-11-19T03:02:40;101311.84;;;-3.47;100.00
20256;BME280;10286;59.364;18.016;2023-11-19T03:05:13;101310.22;;;-3.51;100.00
20256;BME280;10286;59.364;18.016;2023-11-19T03:07:41;101308.44;;;-3.49;100.00
20256;BME280;10286;59.364;18.016;2023-11-19T03:10:10;101300.59;;;-3.43;100.00
20256;BME280;10286;59.364;18.016;2023-11-19T03:12:39;101300.50;;;-3.37;100.00
20256;BME280;10286;59.364;18.016;2023-11-19T03:15:08;101296.22;;;-3.39;100.00
20256;BME280;10286;59.364;18.016;2023-11-19T03:17:40;101295.34;;;-3.37;100.00
20256;BME280;10286;59.364;18.016;2023-11-19T03:20:09;101285.09;;;-3.43;100.00
20256;BME280;10286;59.364;18.016;2023-11-19T03:22:39;101289.22;;;-3.33;100.00
20256;BME280;10286;59.364;18.016;2023-11-19T03:25:08;101278.09;;;-3.37;100.00
20256;BME280;10286;59.364;18.016;2023-11-19T03:27:34;101280.66;;;-3.35;100.00
20256;BME280;10286;59.364;18.016;2023-11-19T03:30:02;101282.28;;;-3.30;100.00
20256;BME280;10286;59.364;18.016;2023-11-19T03:32:31;101271.91;;;-3.27;100.00
20256;BME280;10286;59.364;18.016;2023-11-19T03:35:04;101225.09;;;-3.52;100.00
20256;BME280;10286;59.364;18.016;2023-11-19T03:37:35;101252.44;;;-3.42;100.00
20256;BME280;10286;59.364;18.016;2023-11-19T03:40:09;101254.06;;;-3.37;100.00
20256;BME280;10286;59.364;18.016;2023-11-19T03:42:42;101257.66;;;-3.47;100.00
20256;BME280;10286;59.364;18.016;2023-11-19T03:45:09;101206.81;;;-3.83;100.00
20256;BME280;10286;59.364;18.016;2023-11-19T03:47:37;101249.97;;;-3.48;100.00
20256;BME280;10286;59.364;18.016;2023-11-19T03:50:08;101248.44;;;-3.57;100.00
20256;BME280;10286;59.364;18.016;2023-11-19T03:52:36;101250.88;;;-3.51;100.00
20256;BME280;10286;59.364;18.016;2023-11-19T03:55:04;101249.25;;;-3.56;100.00
20256;BME280;10286;59.364;18.016;2023-11-19T03:57:34;101236.56;;;-3.65;100.00
20256;BME280;10286;59.364;18.016;2023-11-19T04:00:01;101236.47;;;-3.61;100.00
20256;BME280;10286;59.364;18.016;2023-11-19T04:02:34;101205.94;;;-3.82;100.00
20256;BME280;10286;59.364;18.016;2023-11-19T04:05:01;101236.50;;;-3.64;100.00
20256;BME280;10286;59.364;18.016;2023-11-19T04:07:31;101239.88;;;-3.60;100.00
20256;BME280;10286;59.364;18.016;2023-11-19T04:09:58;101228.69;;;-3.59;100.00
20256;BME280;10286;59.364;18.016;2023-11-19T04:12:26;101234.66;;;-3.56;100.00
20256;BME280;10286;59.364;18.016;2023-11-19T04:14:53;101235.63;;;-3.63;100.00
20256;BME280;10286;59.364;18.016;2023-11-19T04:17:21;101228.56;;;-3.53;100.00
20256;BME280;10286;59.364;18.016;2023-11-19T04:19:48;101217.25;;;-3.46;100.00
20256;BME280;10286;59.364;18.016;2023-11-19T04:22:16;101215.50;;;-3.46;100.00
20256;BME280;10286;59.364;18.016;2023-11-19T04:24:45;101213.75;;;-3.44;100.00
20256;BME280;10286;59.364;18.016;2023-11-19T04:27:13;101203.41;;;-3.42;100.00
20256;BME280;10286;59.364;18.016;2023-11-19T04:29:41;101182.09;;;-3.52;100.00
20256;BME280;10286;59.364;18.016;2023-11-19T04:32:09;101197.56;;;-3.50;100.00
20256;BME280;10286;59.364;18.016;2023-11-19T04:34:39;101197.59;;;-3.52;100.00
20256;BME280;10286;59.364;18.016;2023-11-19T04:37:07;101177.91;;;-3.57;100.00
20256;BME280;10286;59.364;18.016;2023-11-19T04:39:35;101174.59;;;-3.62;100.00
20256;BME280;10286;59.364;18.016;2023-11-19T04:42:05;101171.22;;;-3.66;100.00
20256;BME280;10286;59.364;18.016;2023-11-19T04:44:34;101177.03;;;-3.56;100.00
20256;BME280;10286;59.364;18.016;2023-11-19T04:47:02;101175.34;;;-3.57;100.00
20256;BME280;10286;59.364;18.016;2023-11-19T04:49:30;101175.19;;;-3.50;100.00
20256;BME280;10286;59.364;18.016;2023-11-19T04:51:59;101153.88;;;-3.59;100.00
20256;BME280;10286;59.364;18.016;2023-11-19T04:54:26;101175.88;;;-3.42;100.00
20256;BME280;10286;59.364;18.016;2023-11-19T04:56:55;101175.81;;;-3.39;100.00
20256;BME280;10286;59.364;18.016;2023-11-19T04:59:27;101174.00;;;-3.36;100.00
20256;BME280;10286;59.364;18.016;2023-11-19T05:01:54;101171.38;;;-3.33;100.00
20256;BME280;10286;59.364;18.016;2023-11-19T05:04:21;101163.75;;;-3.38;100.00
20256;BME280;10286;59.364;18.016;2023-11-19T05:06:48;101137.50;;;-3.57;100.00
20256;BME280;10286;59.364;18.016;2023-11-19T05:09:15;101164.50;;;-3.34;100.00
20256;BME280;10286;59.364;18.016;2023-11-19T05:11:43;101164.44;;;-3.31;100.00
20256;BME280;10286;59.364;18.016;2023-11-19T05:14:10;101160.78;;;-3.21;100.00
20256;BME280;10286;59.364;18.016;2023-11-19T05:16:40;101148.03;;;-3.28;100.00
20256;BME280;10286;59.364;18.016;2023-11-19T05:19:08;101153.06;;;-3.22;100.00
20256;BME280;10286;59.364;18.016;2023-11-19T05:21:35;101157.31;;;-3.20;100.00
20256;BME280;10286;59.364;18.016;2023-11-19T05:24:03;101158.38;;;-3.28;100.00
20256;BME280;10286;59.364;18.016;2023-11-19T05:26:31;101151.59;;;-3.32;100.00
20256;BME280;10286;59.364;18.016;2023-11-19T05:28:58;101150.72;;;-3.33;100.00
20256;BME280;10286;59.364;18.016;2023-11-19T05:31:26;101134.41;;;-3.33;100.00
20256;BME280;10286;59.364;18.016;2023-11-19T05:33:55;101137.56;;;-3.21;100.00
20256;BME280;10286;59.364;18.016;2023-11-19T05:36:23;101124.75;;;-3.25;100.00
20256;BME280;10286;59.364;18.016;2023-11-19T05:38:54;101123.03;;;-3.25;100.00
20256;BME280;10286;59.364;18.016;2023-11-19T05:41:22;101127.25;;;-3.22;100.00
20256;BME280;10286;59.364;18.016;2023-11-19T05:43:50;101126.41;;;-3.23;100.00
20256;BME280;10286;59.364;18.016;2023-11-19T05:46:18;101126.59;;;-3.30;100.00
20256;BME280;10286;59.364;18.016;2023-11-19T05:48:45;101118.78;;;-3.27;100.00
20256;BME280;10286;59.364;18.016;2023-11-19T05:51:18;101096.84;;;-3.46;100.00
20256;BME280;10286;59.364;18.016;2023-11-19T05:53:46;101107.84;;;-3.38;100.00
20256;BME280;10286;59.364;18.016;2023-11-19T05:56:16;101113.84;;;-3.36;100.00
20256;BME280;10286;59.364;18.016;2023-11-19T05:58:48;101104.50;;;-3.43;100.00
20256;BME280;10286;59.364;18.016;2023-11-19T06:01:15;101114.91;;;-3.46;100.00
20256;BME280;10286;59.364;18.016;2023-11-19T06:03:44;101108.09;;;-3.48;100.00
20256;BME280;10286;59.364;18.016;2023-11-19T06:06:15;101103.84;;;-3.52;100.00
20256;BME280;10286;59.364;18.016;2023-11-19T06:08:46;101094.53;;;-3.58;100.00
20256;BME280;10286;59.364;18.016;2023-11-19T06:11:16;101063.25;;;-3.81;100.00
20256;BME280;10286;59.364;18.016;2023-11-19T06:13:46;101053.81;;;-3.83;100.00
20256;BME280;10286;59.364;18.016;2023-11-19T06:16:17;101119.22;;;-3.46;100.00
20256;BME280;10286;59.364;18.016;2023-11-19T06:18:44;101119.97;;;-3.43;100.00
20256;BME280;10286;59.364;18.016;2023-11-19T06:21:13;101111.34;;;-3.40;100.00
20256;BME280;10286;59.364;18.016;2023-11-19T06:23:41;101117.28;;;-3.37;100.00
20256;BME280;10286;59.364;18.016;2023-11-19T06:26:20;101117.94;;;-3.28;100.00
20256;BME280;10286;59.364;18.016;2023-11-19T06:28:50;101111.78;;;-3.22;100.00
20256;BME280;10286;59.364;18.016;2023-11-19T06:31:19;101113.44;;;-3.18;100.00
20256;BME280;10286;59.364;18.016;2023-11-19T06:33:47;101110.78;;;-3.15;100.00
20256;BME280;10286;59.364;18.016;2023-11-19T06:36:14;101106.44;;;-3.15;100.00
20256;BME280;10286;59.364;18.016;2023-11-19T06:38:43;101094.41;;;-3.16;100.00
20256;BME280;10286;59.364;18.016;2023-11-19T06:41:10;101091.09;;;-3.21;100.00
20256;BME280;10286;59.364;18.016;2023-11-19T06:43:39;101102.16;;;-3.16;100.00
20256;BME280;10286;59.364;18.016;2023-11-19T06:46:15;101096.94;;;-3.13;100.00
20256;BME280;10286;59.364;18.016;2023-11-19T06:48:43;101084.16;;;-3.17;100.00
20256;BME280;10286;59.364;18.016;2023-11-19T06:51:10;101074.72;;;-3.20;100.00
20256;BME280;10286;59.364;18.016;2023-11-19T06:53:38;101073.00;;;-3.19;100.00
20256;BME280;10286;59.364;18.016;2023-11-19T06:56:10;101078.84;;;-3.11;100.00
20256;BME280;10286;59.364;18.016;2023-11-19T06:58:45;101076.28;;;-3.13;100.00
20256;BME280;10286;59.364;18.016;2023-11-19T07:01:13;101079.63;;;-3.08;100.00
20256;BME280;10286;59.364;18.016;2023-11-19T07:03:44;101079.56;;;-3.06;100.00
20256;BME280;10286;59.364;18.016;2023-11-19T07:06:11;101073.56;;;-3.07;100.00
20256;BME280;10286;59.364;18.016;2023-11-19T07:08:41;101053.97;;;-3.15;100.00
20256;BME280;10286;59.364;18.016;2023-11-19T07:11:10;101063.25;;;-3.08;100.00
20256;BME280;10286;59.364;18.016;2023-11-19T07:13:39;101058.13;;;-3.10;100.00
20256;BME280;10286;59.364;18.016;2023-11-19T07:16:08;101061.56;;;-3.09;100.00
20256;BME280;10286;59.364;18.016;2023-11-19T07:18:37;101058.34;;;-3.19;100.00
20256;BME280;10286;59.364;18.016;2023-11-19T07:21:05;101080.63;;;-3.15;100.00
20256;BME280;10286;59.364;18.016;2023-11-19T07:23:33;101078.75;;;-3.08;100.00
20256;BME280;10286;59.364;18.016;2023-11-19T07:26:01;101070.84;;;-3.01;100.00
20256;BME280;10286;59.364;18.016;2023-11-19T07:28:33;101068.50;;;-3.11;100.00
20256;BME280;10286;59.364;18.016;2023-11-19T07:31:00;101069.41;;;-3.14;100.00
20256;BME280;10286;59.364;18.016;2023-11-19T07:33:29;101063.53;;;-3.20;100.00
20256;BME280;10286;59.364;18.016;2023-11-19T07:35:57;101063.53;;;-3.19;100.00
20256;BME280;10286;59.364;18.016;2023-11-19T07:38:25;101057.38;;;-3.13;100.00
20256;BME280;10286;59.364;18.016;2023-11-19T07:40:54;101055.63;;;-3.13;100.00
20256;BME280;10286;59.364;18.016;2023-11-19T07:43:22;101067.56;;;-3.09;100.00
20256;BME280;10286;59.364;18.016;2023-11-19T07:45:49;101056.50;;;-3.12;100.00
20256;BME280;10286;59.364;18.016;2023-11-19T07:48:17;101057.19;;;-3.06;100.00
20256;BME280;10286;59.364;18.016;2023-11-19T07:50:50;101046.16;;;-3.12;100.00
20256;BME280;10286;59.364;18.016;2023-11-19T07:53:18;101052.84;;;-3.04;100.00
20256;BME280;10286;59.364;18.016;2023-11-19T07:55:45;101037.38;;;-3.05;100.00
20256;BME280;10286;59.364;18.016;2023-11-19T07:58:13;101056.13;;;-2.97;100.00
20256;BME280;10286;59.364;18.016;2023-11-19T08:00:41;101059.28;;;-2.88;100.00
20256;BME280;10286;59.364;18.016;2023-11-19T08:03:09;101065.22;;;-2.83;100.00
20256;BME280;10286;59.364;18.016;2023-11-19T08:05:37;101030.03;;;-2.87;100.00
20256;BME280;10286;59.364;18.016;2023-11-19T08:08:08;101058.72;;;-2.65;100.00
20256;BME280;10286;59.364;18.016;2023-11-19T08:10:35;101049.25;;;-2.65;100.00
20256;BME280;10286;59.364;18.016;2023-11-19T08:13:06;101063.88;;;-2.64;100.00
20256;BME280;10286;59.364;18.016;2023-11-19T08:15:33;101049.13;;;-2.60;100.00
20256;BME280;10286;59.364;18.016;2023-11-19T08:18:02;101045.78;;;-2.64;100.00
20256;BME280;10286;59.364;18.016;2023-11-19T08:20:29;101062.81;;;-2.57;100.00
20256;BME280;10286;59.364;18.016;2023-11-19T08:22:57;101049.00;;;-2.56;100.00
20256;BME280;10286;59.364;18.016;2023-11-19T08:25:27;101054.16;;;-2.54;100.00
20256;BME280;10286;59.364;18.016;2023-11-19T08:27:56;101053.41;;;-2.59;100.00
20256;BME280;10286;59.364;18.016;2023-11-19T08:30:23;101043.53;;;-2.44;100.00
20256;BME280;10286;59.364;18.016;2023-11-19T08:32:50;101020.56;;;-2.54;100.00
20256;BME280;10286;59.364;18.016;2023-11-19T08:35:18;101044.97;;;-2.34;100.00
20256;BME280;10286;59.364;18.016;2023-11-19T08:37:46;101010.75;;;-2.42;100.00
20256;BME280;10286;59.364;18.016;2023-11-19T08:40:14;101031.53;;;-2.16;100.00
20256;BME280;10286;59.364;18.016;2023-11-19T08:42:44;101035.59;;;-2.07;100.00
20256;BME280;10286;59.364;18.016;2023-11-19T08:45:13;101026.84;;;-2.02;100.00
20256;BME280;10286;59.364;18.016;2023-11-19T08:47:41;101037.72;;;-1.92;100.00
20256;BME280;10286;59.364;18.016;2023-11-19T08:50:11;101003.03;;;-2.14;100.00
20256;BME280;10286;59.364;18.016;2023-11-19T08:52:40;101030.59;;;-1.84;100.00
20256;BME280;10286;59.364;18.016;2023-11-19T08:55:08;101035.91;;;-1.89;100.00
20256;BME280;10286;59.364;18.016;2023-11-19T08:57:36;101040.56;;;-2.00;100.00
20256;BME280;10286;59.364;18.016;2023-11-19T09:00:08;101033.00;;;-2.07;100.00
20256;BME280;10286;59.364;18.016;2023-11-19T09:02:35;101032.50;;;-2.20;100.00
20256;BME280;10286;59.364;18.016;2023-11-19T09:05:05;101036.78;;;-2.19;100.00
20256;BME280;10286;59.364;18.016;2023-11-19T09:07:33;101030.81;;;-2.21;100.00
20256;BME280;10286;59.364;18.016;2023-11-19T09:10:01;101025.81;;;-2.27;100.00
20256;BME280;10286;59.364;18.016;2023-11-19T09:12:31;101024.06;;;-2.26;100.00
20256;BME280;10286;59.364;18.016;2023-11-19T09:15:15;100985.91;;;-2.47;100.00
20256;BME280;10286;59.364;18.016;2023-11-19T09:17:47;101023.78;;;-2.16;100.00
20256;BME280;10286;59.364;18.016;2023-11-19T09:20:14;101011.66;;;-2.14;100.00
20256;BME280;10286;59.364;18.016;2023-11-19T09:22:41;101014.84;;;-2.06;100.00
20256;BME280;10286;59.364;18.016;2023-11-19T09:25:09;101001.84;;;-2.03;100.00
20256;BME280;10286;59.364;18.016;2023-11-19T09:27:36;101005.00;;;-1.93;100.00
20256;BME280;10286;59.364;18.016;2023-11-19T09:30:05;101006.38;;;-1.82;100.00
20256;BME280;10286;59.364;18.016;2023-11-19T09:32:34;100995.13;;;-1.81;100.00
20256;BME280;10286;59.364;18.016;2023-11-19T09:35:04;100995.78;;;-1.74;100.00
20256;BME280;10286;59.364;18.016;2023-11-19T09:37:32;100985.28;;;-1.68;100.00
20256;BME280;10286;59.364;18.016;2023-11-19T09:40:00;100970.47;;;-1.64;100.00
20256;BME280;10286;59.364;18.016;2023-11-19T09:42:27;100983.97;;;-1.54;100.00
20256;BME280;10286;59.364;18.016;2023-11-19T09:44:56;100993.81;;;-1.39;100.00
20256;BME280;10286;59.364;18.016;2023-11-19T09:47:26;100971.22;;;-1.34;100.00
20256;BME280;10286;59.364;18.016;2023-11-19T09:49:57;100986.47;;;-1.25;100.00
20256;BME280;10286;59.364;18.016;2023-11-19T09:52:24;100983.81;;;-1.24;100.00
20256;BME280;10286;59.364;18.016;2023-11-19T09:54:51;100952.31;;;-1.36;100.00
20256;BME280;10286;59.364;18.016;2023-11-19T09:57:19;100974.84;;;-1.14;100.00
20256;BME280;10286;59.364;18.016;2023-11-19T09:59:47;100977.41;;;-1.12;100.00
20256;BME280;10286;59.364;18.016;2023-11-19T10:02:15;100962.00;;;-1.17;100.00
20256;BME280;10286;59.364;18.016;2023-11-19T10:04:44;100963.94;;;-1.23;100.00
20256;BME280;10286;59.364;18.016;2023-11-19T10:07:15;100952.09;;;-1.30;100.00
20256;BME280;10286;59.364;18.016;2023-11-19T10:09:43;100950.09;;;-1.22;100.00
20256;BME280;10286;59.364;18.016;2023-11-19T10:12:15;100949.09;;;-1.18;100.00
20256;BME280;10286;59.364;18.016;2023-11-19T10:14:44;100941.19;;;-1.14;100.00
20256;BME280;10286;59.364;18.016;2023-11-19T10:17:14;100931.28;;;-1.27;100.00
20256;BME280;10286;59.364;18.016;2023-11-19T10:19:41;100919.88;;;-1.22;100.00
20256;BME280;10286;59.364;18.016;2023-11-19T10:22:09;100921.69;;;-0.99;100.00
20256;BME280;10286;59.364;18.016;2023-11-19T10:24:40;100913.72;;;-0.93;100.00
20256;BME280;10286;59.364;18.016;2023-11-19T10:27:08;100927.25;;;-0.85;100.00
20256;BME280;10286;59.364;18.016;2023-11-19T10:29:36;100930.88;;;-0.91;100.00
20256;BME280;10286;59.364;18.016;2023-11-19T10:32:07;100918.97;;;-0.96;100.00
20256;BME280;10286;59.364;18.016;2023-11-19T10:34:35;100911.22;;;-0.96;100.00
20256;BME280;10286;59.364;18.016;2023-11-19T10:37:05;100905.50;;;-0.81;100.00
20256;BME280;10286;59.364;18.016;2023-11-19T10:39:51;100903.88;;;-0.84;100.00
20256;BME280;10286;59.364;18.016;2023-11-19T10:42:20;100907.47;;;-0.65;100.00
20256;BME280;10286;59.364;18.016;2023-11-19T10:44:47;100899.09;;;-0.48;100.00
20256;BME280;10286;59.364;18.016;2023-11-19T10:47:15;100899.81;;;-0.68;100.00
20256;BME280;10286;59.364;18.016;2023-11-19T10:49:47;100889.03;;;-0.80;100.00
20256;BME280;10286;59.364;18.016;2023-11-19T10:52:26;100890.47;;;-0.72;100.00
20256;BME280;10286;59.364;18.016;2023-11-19T10:55:00;100901.97;;;-0.33;100.00
20256;BME280;10286;59.364;18.016;2023-11-19T10:57:30;100900.25;;;-0.11;100.00
20256;BME280;10286;59.364;18.016;2023-11-19T11:00:03;100890.91;;;-0.15;100.00
20256;BME280;10286;59.364;18.016;2023-11-19T11:02:41;100901.13;;;-0.56;100.00
20256;BME280;10286;59.364;18.016;2023-11-19T11:05:13;100865.81;;;-0.82;100.00
20256;BME280;10286;59.364;18.016;2023-11-19T11:07:44;100898.31;;;-0.73;100.00
20256;BME280;10286;59.364;18.016;2023-11-19T11:10:15;100887.34;;;-0.81;100.00
20256;BME280;10286;59.364;18.016;2023-11-19T11:12:44;100890.06;;;-0.84;100.00
20256;BME280;10286;59.364;18.016;2023-11-19T11:15:14;100889.44;;;-0.68;100.00
20256;BME280;10286;59.364;18.016;2023-11-19T11:17:44;100881.63;;;-0.66;100.00
20256;BME280;10286;59.364;18.016;2023-11-19T11:20:13;100881.91;;;-0.51;100.00
20256;BME280;10286;59.364;18.016;2023-11-19T11:22:49;100858.84;;;-0.35;100.00
20256;BME280;10286;59.364;18.016;2023-11-19T11:25:36;100866.41;;;0.13;100.00
20256;BME280;10286;59.364;18.016;2023-11-19T11:28:19;100851.22;;;0.46;100.00
20256;BME280;10286;59.364;18.016;2023-11-19T11:31:03;100860.72;;;-0.17;100.00
20256;BME280;10286;59.364;18.016;2023-11-19T11:33:48;100866.25;;;-0.71;100.00
20256;BME280;10286;59.364;18.016;2023-11-19T11:36:23;100816.13;;;-1.17;100.00
20256;BME280;10286;59.364;18.016;2023-11-19T11:38:50;100865.09;;;-0.87;100.00
20256;BME280;10286;59.364;18.016;2023-11-19T11:41:23;100864.81;;;-0.79;100.00
20256;BME280;10286;59.364;18.016;2023-11-19T11:43:52;100849.38;;;-0.59;100.00
20256;BME280;10286;59.364;18.016;2023-11-19T11:46:54;100852.63;;;-0.76;100.00
20256;BME280;10286;59.364;18.016;2023-11-19T11:49:26;100844.09;;;-0.56;100.00
20256;BME280;10286;59.364;18.016;2023-11-19T11:52:04;100849.28;;;-0.56;100.00
20256;BME280;10286;59.364;18.016;2023-11-19T11:54:32;100848.44;;;-0.80;100.00
20256;BME280;10286;59.364;18.016;2023-11-19T11:57:08;100851.97;;;-0.82;100.00
20256;BME280;10286;59.364;18.016;2023-11-19T11:59:50;100856.03;;;-0.75;100.00
20256;BME280;10286;59.364;18.016;2023-11-19T12:02:20;100850.91;;;-1.00;100.00
20256;BME280;10286;59.364;18.016;2023-11-19T12:04:50;100859.63;;;-1.02;100.00
20256;BME280;10286;59.364;18.016;2023-11-19T12:07:19;100845.03;;;-1.28;100.00
20256;BME280;10286;59.364;18.016;2023-11-19T12:09:48;100836.44;;;-1.30;100.00
20256;BME280;10286;59.364;18.016;2023-11-19T12:12:26;100854.97;;;-1.17;100.00
20256;BME280;10286;59.364;18.016;2023-11-19T12:15:06;100857.78;;;-1.23;100.00
20256;BME280;10286;59.364;18.016;2023-11-19T12:17:53;100834.94;;;-1.35;100.00
20256;BME280;10286;59.364;18.016;2023-11-19T12:20:22;100833.75;;;-1.51;100.00
20256;BME280;10286;59.364;18.016;2023-11-19T12:22:54;100833.63;;;-1.48;100.00
20256;BME280;10286;59.364;18.016;2023-11-19T12:25:22;100837.16;;;-1.51;100.00
20256;BME280;10286;59.364;18.016;2023-11-19T12:27:54;100827.81;;;-1.55;100.00
20256;BME280;10286;59.364;18.016;2023-11-19T12:30:22;100838.00;;;-1.49;100.00
20256;BME280;10286;59.364;18.016;2023-11-19T12:32:51;100833.63;;;-1.48;100.00
20256;BME280;10286;59.364;18.016;2023-11-19T12:35:19;100819.34;;;-1.58;100.00
20256;BME280;10286;59.364;18.016;2023-11-19T12:37:47;100823.69;;;-1.60;100.00
20256;BME280;10286;59.364;18.016;2023-11-19T12:40:16;100825.59;;;-1.65;100.00
20256;BME280;10286;59.364;18.016;2023-11-19T12:42:46;100814.44;;;-1.67;100.00